Time;durP1;ratioP1;P1;durP2;ratioP2;P2;SDS_P1;SDS_P2;PMS_P1;PMS_P2;Temp;Humidity;BMP_temperature;BMP_pressure;BME280_temperature;BME280_humidity;BME280_pressure;Samples;Min_cycle;Max_cycle;Signal;HPM_P1;HPM_P2
2023/03/18 00:01:50;;;;;;;3.17;2.92;;;;;;;0.50;100.00;62049.72;5027543;28;20223;-78
2023/03/18 00:04:18;;;;;;;2.75;2.50;;;;;;;0.57;100.00;62051.88;5033150;28;20222;-78
2023/03/18 00:06:44;;;;;;;2.90;2.70;;;;;;;0.56;100.00;62053.34;5030605;28;20228;-78
2023/03/18 00:09:13;;;;;;;3.90;2.53;;;;;;;0.53;100.00;62053.31;5024771;28;20199;-77
2023/03/18 00:11:40;;;;;;;2.25;2.05;;;;;;;0.56;100.00;62061.38;5033648;28;20226;-78
2023/03/18 00:14:08;;;;;;;2.45;2.25;;;;;;;0.49;100.00;62051.69;5032517;28;20202;-79
2023/03/18 00:16:37;;;;;;;2.22;2.03;;;;;;;0.52;100.00;62052.25;5024874;28;20507;-79
2023/03/18 00:19:04;;;;;;;2.88;2.58;;;;;;;0.44;100.00;62044.06;5027346;28;20203;-78
2023/03/18 00:21:31;;;;;;;2.97;2.78;;;;;;;0.44;100.00;62046.56;5029205;28;20214;-78
2023/03/18 00:23:59;;;;;;;3.55;3.28;;;;;;;0.44;100.00;62046.06;5027288;28;20199;-77
2023/03/18 00:26:27;;;;;;;4.10;3.67;;;;;;;0.42;100.00;62044.00;5021985;28;20537;-77
2023/03/18 00:28:56;;;;;;;3.90;3.50;;;;;;;0.42;100.00;62042.03;5026338;28;20222;-78
2023/03/18 00:31:23;;;;;;;4.05;3.28;;;;;;;0.41;100.00;62041.00;5026627;28;20230;-76
2023/03/18 00:33:52;;;;;;;3.67;3.38;;;;;;;0.42;100.00;62046.50;5025912;28;20507;-77
2023/03/18 00:36:24;;;;;;;4.18;3.67;;;;;;;0.39;100.00;62035.94;5024172;28;20258;-78
2023/03/18 00:38:56;;;;;;;5.38;4.63;;;;;;;0.41;100.00;62038.50;5025495;28;20199;-77
2023/03/18 00:41:23;;;;;;;6.15;5.22;;;;;;;0.44;100.00;62043.56;5028044;28;20325;-76
2023/03/18 00:43:52;;;;;;;6.35;5.40;;;;;;;0.42;100.00;62039.50;5025612;28;20202;-79
2023/03/18 00:46:23;;;;;;;6.82;5.20;;;;;;;0.39;100.00;62038.94;5024132;28;20230;-79
2023/03/18 00:48:52;;;;;;;8.63;5.70;;;;;;;0.38;100.00;62037.41;5025264;28;20194;-76
2023/03/18 00:51:21;;;;;;;5.82;5.03;;;;;;;0.39;100.00;62036.44;5024723;28;20262;-77
2023/03/18 00:53:50;;;;;;;8.82;5.13;;;;;;;0.39;100.00;62040.94;5034480;28;20202;-77
2023/03/18 00:56:19;;;;;;;4.65;3.80;;;;;;;0.35;100.00;62031.81;5035802;28;20241;-77
2023/03/18 00:58:47;;;;;;;4.38;3.75;;;;;;;0.33;100.00;62032.78;5027391;28;20199;-78
2023/03/18 01:01:15;;;;;;;6.03;3.92;;;;;;;0.30;100.00;62031.69;5022670;28;20204;-78
2023/03/18 01:03:42;;;;;;;8.77;4.32;;;;;;;0.32;100.00;62033.75;5028054;28;20229;-79
2023/03/18 01:06:13;;;;;;;3.85;3.40;;;;;;;0.30;100.00;62027.22;5026181;28;20379;-78
2023/03/18 01:08:41;;;;;;;5.43;2.85;;;;;;;0.29;100.00;62028.69;5023741;28;20226;-79
2023/03/18 01:11:09;;;;;;;3.45;3.10;;;;;;;0.22;100.00;62018.50;5023842;28;20225;-78
2023/03/18 01:13:36;;;;;;;3.53;3.22;;;;;;;0.28;100.00;62025.16;5026308;28;20199;-77
2023/03/18 01:16:05;;;;;;;3.72;3.45;;;;;;;0.29;100.00;62021.19;5026729;28;20577;-78
2023/03/18 01:18:32;;;;;;;3.40;3.10;;;;;;;0.25;100.00;62027.09;5023233;28;20207;-77
2023/03/18 01:20:59;;;;;;;3.65;3.35;;;;;;;0.22;100.00;62023.50;5034773;28;20503;-78
2023/03/18 01:23:29;;;;;;;3.55;3.25;;;;;;;0.18;100.00;62017.41;5027928;28;20199;-77
2023/03/18 01:25:56;;;;;;;3.05;2.72;;;;;;;0.21;100.00;62020.00;5023619;28;20214;-78
2023/03/18 01:28:23;;;;;;;3.63;3.25;;;;;;;0.21;100.00;62022.50;5022412;28;20194;-77
2023/03/18 01:30:50;;;;;;;3.65;3.08;;;;;;;0.15;100.00;62014.34;5024539;28;20378;-77
2023/03/18 01:33:18;;;;;;;4.18;3.17;;;;;;;0.21;100.00;62017.50;5025431;28;20414;-77
2023/03/18 01:35:46;;;;;;;3.10;2.80;;;;;;;0.18;100.00;62019.91;5026062;28;20226;-77
2023/03/18 01:38:14;;;;;;;3.55;3.25;;;;;;;0.15;100.00;62009.34;5029250;28;20221;-78
2023/03/18 01:40:44;;;;;;;3.97;3.20;;;;;;;0.13;100.00;62012.28;5043989;28;20198;-77
2023/03/18 01:43:16;;;;;;;5.03;2.92;;;;;;;0.14;100.00;62015.81;5025069;28;20219;-78
2023/03/18 01:45:48;;;;;;;5.18;2.63;;;;;;;0.10;100.00;62006.72;5015836;28;20206;-78
2023/03/18 01:48:16;;;;;;;4.50;3.63;;;;;;;0.10;100.00;62009.22;5023614;28;20226;-78
2023/03/18 01:50:46;;;;;;;4.20;3.25;;;;;;;0.05;100.00;62004.09;5026312;28;20514;-78
2023/03/18 01:53:15;;;;;;;3.47;3.00;;;;;;;0.07;100.00;62006.13;5028018;28;20338;-79
2023/03/18 01:55:45;;;;;;;3.25;3.00;;;;;;;0.06;100.00;62007.09;5021530;28;20234;-78
2023/03/18 01:58:17;;;;;;;4.13;3.05;;;;;;;0.10;100.00;62009.22;5023638;28;20614;-77
2023/03/18 02:00:50;;;;;;;3.60;3.05;;;;;;;0.09;100.00;62010.19;5024386;28;20203;-77
2023/03/18 02:03:19;;;;;;;3.90;3.60;;;;;;;0.07;100.00;62013.16;5023163;28;20226;-78
2023/03/18 02:05:48;;;;;;;3.22;2.92;;;;;;;0.00;100.00;62001.97;5025948;28;20222;-79
2023/03/18 02:08:15;;;;;;;3.28;2.65;;;;;;;0.06;100.00;62007.63;5041563;28;20218;-80
2023/03/18 02:10:45;;;;;;;3.83;3.05;;;;;;;0.03;100.00;61999.56;5033774;28;20199;-78
2023/03/18 02:13:14;;;;;;;3.13;2.83;;;;;;;0.08;100.00;62007.16;5028845;28;20567;-80
2023/03/18 02:15:48;;;;;;;3.33;2.83;;;;;;;0.02;100.00;62003.53;5037160;28;20228;-78
2023/03/18 02:18:20;;;;;;;3.20;2.88;;;;;;;0.06;100.00;62007.09;5028749;28;20229;-77
2023/03/18 02:21:08;;;;;;;4.18;2.40;;;;;;;-0.01;100.00;61992.94;5009460;28;20203;-78
2023/03/18 02:23:43;;;;;;;2.35;2.17;;;;;;;-0.05;100.00;61994.34;5027672;28;20222;-78
2023/03/18 02:26:21;;;;;;;2.47;2.35;;;;;;;-0.06;100.00;61995.84;5030285;28;20521;-79
2023/03/18 02:28:52;;;;;;;3.08;2.88;;;;;;;-0.08;100.00;61988.28;5026881;28;20205;-77
2023/03/18 02:31:20;;;;;;;3.13;2.88;;;;;;;-0.13;100.00;61980.66;5020782;28;20226;-78
2023/03/18 02:33:47;;;;;;;3.13;2.83;;;;;;;-0.14;100.00;61990.13;5029525;28;20223;-79
2023/03/18 02:36:18;;;;;;;4.93;3.45;;;;;;;-0.17;100.00;61981.53;5027819;28;20272;-78
2023/03/18 02:38:46;;;;;;;3.47;3.10;;;;;;;-0.19;100.00;61982.00;5026247;28;20202;-78
2023/03/18 02:41:15;;;;;;;3.85;2.58;;;;;;;-0.21;100.00;61975.47;5027362;28;20210;-78
2023/03/18 02:43:42;;;;;;;3.05;2.75;;;;;;;-0.25;100.00;61973.34;5028191;28;20195;-78
2023/03/18 02:46:27;;;;;;;3.58;3.28;;;;;;;-0.26;100.00;61974.84;5027726;28;20205;-79
2023/03/18 02:48:55;;;;;;;3.88;3.50;;;;;;;-0.28;100.00;61970.81;5027868;28;20265;-77
2023/03/18 02:51:22;;;;;;;4.20;3.80;;;;;;;-0.31;100.00;61967.22;5027189;28;20326;-79
2023/03/18 02:53:49;;;;;;;3.33;2.80;;;;;;;-0.34;100.00;61964.66;5032024;28;20209;-78
2023/03/18 02:56:16;;;;;;;3.00;2.63;;;;;;;-0.36;100.00;61962.59;5030750;28;20249;-79
2023/03/18 02:58:44;;;;;;;4.38;2.97;;;;;;;-0.39;100.00;61959.00;5026498;28;20205;-80
2023/03/18 03:01:11;;;;;;;3.67;3.38;;;;;;;-0.38;100.00;61957.53;5027784;28;20261;-79
2023/03/18 03:03:40;;;;;;;3.88;3.45;;;;;;;-0.44;100.00;61951.41;5026757;28;20425;-78
2023/03/18 03:06:07;;;;;;;2.90;2.67;;;;;;;-0.45;100.00;61955.38;5029168;28;20210;-77
2023/03/18 03:08:35;;;;;;;3.13;2.92;;;;;;;-0.53;100.00;61942.69;5029504;28;20206;-77
2023/03/18 03:11:02;;;;;;;2.35;2.20;;;;;;;-0.58;100.00;61940.06;5025398;28;20213;-78
2023/03/18 03:13:29;;;;;;;4.70;2.85;;;;;;;-0.61;100.00;61939.50;5027194;28;20195;-78
2023/03/18 03:15:56;;;;;;;5.88;3.05;;;;;;;-0.61;100.00;61942.00;5025778;28;20222;-79
2023/03/18 03:18:25;;;;;;;3.30;3.05;;;;;;;-0.59;100.00;61941.03;5027470;28;20194;-79
2023/03/18 03:20:53;;;;;;;2.95;2.75;;;;;;;-0.65;100.00;61935.41;5025439;28;20199;-78
2023/03/18 03:23:20;;;;;;;3.22;3.00;;;;;;;-0.67;100.00;61933.34;5031558;28;20218;-78
2023/03/18 03:25:48;;;;;;;3.25;3.03;;;;;;;-0.74;100.00;61921.19;5024858;28;20410;-78
2023/03/18 03:28:15;;;;;;;3.88;3.58;;;;;;;-0.73;100.00;61927.22;5024772;28;20298;-76
2023/03/18 03:30:42;;;;;;;4.40;3.42;;;;;;;-0.75;100.00;61919.66;5027185;28;20207;-79
2023/03/18 03:33:10;;;;;;;4.60;4.15;;;;;;;-0.81;100.00;61918.50;5026500;28;20231;-78
2023/03/18 03:35:38;;;;;;;5.15;4.20;;;;;;;-0.79;100.00;61920.53;5029039;28;20205;-78
2023/03/18 03:38:06;;;;;;;9.40;4.00;;;;;;;-0.79;100.00;61916.06;5028418;28;20443;-78
2023/03/18 03:40:34;;;;;;;9.82;6.82;;;;;;;-0.71;100.00;61929.25;5028275;28;20203;-79
2023/03/18 03:43:01;;;;;;;12.95;6.75;;;;;;;-0.81;100.00;61916.00;5029531;28;20296;-79
2023/03/18 03:45:28;;;;;;;8.13;4.95;;;;;;;-0.84;100.00;61913.44;5046864;28;20484;-78
2023/03/18 03:47:55;;;;;;;6.18;4.78;;;;;;;-0.86;100.00;61910.91;5032325;28;20226;-78
2023/03/18 03:50:23;;;;;;;9.95;6.03;;;;;;;-0.87;100.00;61909.84;5029305;28;20270;-79
2023/03/18 03:52:51;;;;;;;9.93;6.47;;;;;;;-0.90;100.00;61906.78;5026926;28;20235;-79
2023/03/18 03:55:21;;;;;;;10.25;6.05;;;;;;;-0.91;100.00;61906.28;5034411;28;20202;-77
2023/03/18 03:57:48;;;;;;;8.10;5.75;;;;;;;-0.85;100.00;61909.94;5049001;28;20240;-79
2023/03/18 04:00:19;;;;;;;7.85;5.78;;;;;;;-0.85;100.00;61906.91;5042285;28;20215;-79
2023/03/18 04:02:47;;;;;;;4.63;4.20;;;;;;;-0.86;100.00;61916.38;5026795;28;20453;-78
2023/03/18 04:05:17;;;;;;;3.78;3.47;;;;;;;-0.90;100.00;61907.31;5026207;28;20229;-77
2023/03/18 04:07:45;;;;;;;4.32;3.88;;;;;;;-0.95;100.00;61902.19;5028734;28;20236;-79
2023/03/18 04:10:15;;;;;;;5.45;4.20;;;;;;;-0.96;100.00;61900.63;5028057;28;20203;-79
2023/03/18 04:12:44;;;;;;;7.90;5.00;;;;;;;-0.94;100.00;61897.69;5024756;28;20245;-78
2023/03/18 04:15:13;;;;;;;4.90;4.40;;;;;;;-0.97;100.00;61897.13;5027162;28;20201;-79
2023/03/18 04:17:40;;;;;;;6.88;4.00;;;;;;;-1.00;100.00;61894.06;5025505;28;20530;-78
2023/03/18 04:20:08;;;;;;;5.63;4.78;;;;;;;-1.10;100.00;61884.31;5026321;28;20235;-78
2023/03/18 04:22:36;;;;;;;8.15;5.97;;;;;;;-1.02;100.00;61895.03;5023591;28;20249;-77
2023/03/18 04:25:03;;;;;;;11.00;5.63;;;;;;;-1.03;100.00;61894.00;5025291;28;20226;-78
2023/03/18 04:27:31;;;;;;;7.40;5.72;;;;;;;-1.02;100.00;61902.00;5028309;28;20549;-79
2023/03/18 04:29:59;;;;;;;6.32;4.90;;;;;;;-1.05;100.00;61893.94;5026710;28;20375;-78
2023/03/18 04:32:26;;;;;;;10.55;5.63;;;;;;;-1.05;100.00;61891.94;5023061;28;20601;-77
2023/03/18 04:34:53;;;;;;;10.70;6.20;;;;;;;-1.03;100.00;61889.00;5028185;28;20219;-78
2023/03/18 04:37:19;;;;;;;6.45;4.65;;;;;;;-1.02;100.00;61894.50;5034622;28;20237;-79
2023/03/18 04:39:46;;;;;;;6.13;4.15;;;;;;;-1.02;100.00;61895.03;5048566;28;20252;-79
2023/03/18 04:42:14;;;;;;;12.00;6.25;;;;;;;-1.04;100.00;61889.97;5030506;28;20534;-79
2023/03/18 04:44:41;;;;;;;5.88;5.25;;;;;;;-1.03;100.00;61893.47;5027596;28;20204;-78
2023/03/18 04:47:09;;;;;;;10.38;6.63;;;;;;;-1.02;100.00;61895.03;5026222;28;20229;-77
2023/03/18 04:49:37;;;;;;;8.38;6.43;;;;;;;-1.02;100.00;61894.50;5024402;28;20401;-80
2023/03/18 04:52:04;;;;;;;8.18;5.57;;;;;;;-1.03;100.00;61894.00;5024910;28;20222;-79
2023/03/18 04:54:32;;;;;;;8.15;5.43;;;;;;;-1.01;100.00;61890.53;5026934;28;20397;-78
2023/03/18 04:56:59;;;;;;;7.95;5.28;;;;;;;-1.00;100.00;61902.06;5029611;28;20229;-79
2023/03/18 04:59:26;;;;;;;6.63;5.65;;;;;;;-0.90;100.00;61906.78;5021349;28;20372;-78
2023/03/18 05:01:53;;;;;;;7.78;5.32;;;;;;;-0.88;100.00;61906.34;5027327;28;20244;-81
2023/03/18 05:04:22;;;;;;;7.10;4.93;;;;;;;-0.85;100.00;61911.91;5027178;28;20431;-79
2023/03/18 05:06:49;;;;;;;9.02;5.70;;;;;;;-0.79;100.00;61918.56;5028200;28;20598;-79
2023/03/18 05:09:16;;;;;;;4.60;3.85;;;;;;;-0.73;100.00;61926.69;5026651;28;20267;-81
2023/03/18 05:11:44;;;;;;;22.73;10.93;;;;;;;-0.68;100.00;61931.81;5029891;28;20242;-80
2023/03/18 05:14:12;;;;;;;9.15;6.28;;;;;;;-0.60;100.00;61940.53;5030986;28;20221;-79
2023/03/18 05:16:39;;;;;;;10.02;6.30;;;;;;;-0.55;100.00;61943.13;5026366;28;20256;-78
2023/03/18 05:19:07;;;;;;;8.35;5.00;;;;;;;-0.43;100.00;61955.44;5023817;28;20221;-79
2023/03/18 05:21:36;;;;;;;6.88;5.18;;;;;;;-0.34;100.00;61966.63;5026089;28;20219;-78
2023/03/18 05:24:03;;;;;;;5.78;4.90;;;;;;;-0.21;100.00;61974.97;5028809;28;20539;-79
2023/03/18 05:26:31;;;;;;;5.93;4.50;;;;;;;-0.08;100.00;61993.78;5024530;28;20231;-79
2023/03/18 05:28:58;;;;;;;5.30;4.63;;;;;;;0.02;100.00;62001.00;5027471;28;20218;-78
2023/03/18 05:31:25;;;;;;;5.57;4.65;;;;;;;0.14;100.00;62015.81;5049216;28;20222;-78
2023/03/18 05:33:52;;;;;;;6.05;4.45;;;;;;;0.31;100.00;62035.25;5046547;28;20494;-78
2023/03/18 05:36:18;;;;;;;4.40;3.95;;;;;;;0.44;100.00;62041.06;5027364;28;20277;-78
2023/03/18 05:38:47;;;;;;;5.28;4.75;;;;;;;0.64;100.00;62061.56;5026579;28;20523;-79
2023/03/18 05:41:14;;;;;;;4.35;3.90;;;;;;;0.79;100.00;62079.97;5026629;28;20207;-79
2023/03/18 05:43:41;;;;;;;7.55;5.47;;;;;;;1.00;100.00;62101.50;5023028;28;20202;-78
2023/03/18 05:46:08;;;;;;;9.70;7.07;;;;;;;1.12;100.00;62110.78;5023283;28;20248;-78
2023/03/18 05:48:35;;;;;;;6.43;5.22;;;;;;;1.21;100.00;62120.00;5031929;28;20244;-79
2023/03/18 05:51:03;;;;;;;13.85;6.65;;;;;;;1.36;100.00;62137.91;5041792;28;20411;-79
2023/03/18 05:53:30;;;;;;;8.57;6.50;;;;;;;1.35;100.00;62136.88;5038314;28;20435;-79
2023/03/18 05:55:59;;;;;;;12.40;9.05;;;;;;;1.57;100.00;62164.47;5027088;28;20221;-80
2023/03/18 05:58:29;;;;;;;9.77;7.50;;;;;;;1.67;100.00;62167.22;5024896;28;20585;-79
2023/03/18 06:00:57;;;;;;;8.80;6.85;;;;;;;1.79;100.00;62179.53;5026117;28;20262;-79
2023/03/18 06:03:25;;;;;;;10.85;6.57;;;;;;;1.79;100.00;62179.03;5024046;28;20438;-80
2023/03/18 06:05:53;;;;;;;10.52;7.05;;;;;;;1.77;100.00;62177.47;5025972;28;20460;-80
2023/03/18 06:08:21;;;;;;;11.05;7.45;;;;;;;1.76;100.00;62178.97;5029384;28;20226;-80
2023/03/18 06:10:48;;;;;;;9.43;6.60;;;;;;;1.77;100.00;62182.50;5027588;28;20194;-79
2023/03/18 06:13:16;;;;;;;12.68;9.07;;;;;;;1.73;100.00;62180.38;5021130;28;20227;-79
2023/03/18 06:15:43;;;;;;;9.85;6.72;;;;;;;1.85;100.00;62187.69;5026195;28;20393;-79
2023/03/18 06:18:10;;;;;;;7.78;4.97;;;;;;;1.92;99.70;62197.91;5025339;28;20234;-78
2023/03/18 06:20:37;;;;;;;5.57;4.85;;;;;;;2.02;99.16;62205.66;5023621;28;20203;-80
2023/03/18 06:23:05;;;;;;;5.45;4.90;;;;;;;2.10;97.50;62213.34;5025423;28;20233;-79
2023/03/18 06:25:32;;;;;;;6.35;4.63;;;;;;;2.18;96.70;62222.09;5029693;28;20229;-80
2023/03/18 06:28:00;;;;;;;7.57;5.00;;;;;;;2.17;95.76;62221.06;5025704;28;20221;-79
2023/03/18 06:30:28;;;;;;;7.88;5.28;;;;;;;2.10;95.56;62215.88;5022509;28;20206;-78
2023/03/18 06:32:56;;;;;;;8.95;4.90;;;;;;;1.95;96.86;62195.47;5022508;28;20555;-78
2023/03/18 06:35:26;;;;;;;7.30;5.45;;;;;;;1.90;97.54;62195.31;5027873;28;20209;-82
2023/03/18 06:37:54;;;;;;;7.28;5.40;;;;;;;1.97;98.65;62200.00;5022742;28;20414;-80
2023/03/18 06:40:22;;;;;;;6.63;5.75;;;;;;;2.25;98.99;62234.31;5021074;28;20237;-81
2023/03/18 06:42:49;;;;;;;6.68;5.82;;;;;;;2.14;98.46;62223.00;5036010;28;20222;-81
2023/03/18 06:45:17;;;;;;;7.82;5.07;;;;;;;2.44;98.63;62248.28;5028550;28;20210;-80
2023/03/18 06:47:46;;;;;;;9.07;6.47;;;;;;;2.47;98.23;62248.84;5028021;28;20262;-78
2023/03/18 06:50:14;;;;;;;6.82;6.13;;;;;;;2.53;97.57;62254.50;5036235;28;20771;-78
2023/03/18 06:52:42;;;;;;;8.13;5.78;;;;;;;2.66;98.49;62268.34;5044036;28;20218;-80
2023/03/18 06:55:10;;;;;;;7.50;5.50;;;;;;;2.84;97.96;62291.88;5015843;28;20218;-79
2023/03/18 06:57:37;;;;;;;6.93;5.60;;;;;;;3.01;97.51;62306.84;5029799;28;20230;-79
2023/03/18 07:00:04;;;;;;;7.03;5.65;;;;;;;3.18;96.19;62328.81;5028741;28;20203;-79
2023/03/18 07:02:32;;;;;;;8.38;6.15;;;;;;;3.35;95.67;62341.78;5030172;28;20218;-79
2023/03/18 07:05:00;;;;;;;11.18;6.63;;;;;;;3.44;95.53;62356.06;5047256;28;20353;-77
2023/03/18 07:07:27;;;;;;;7.63;6.72;;;;;;;3.55;96.29;62359.31;5029902;28;20230;-79
2023/03/18 07:09:54;;;;;;;16.17;9.50;;;;;;;3.63;96.78;62369.53;5023389;28;20205;-77
2023/03/18 07:12:21;;;;;;;14.32;8.57;;;;;;;3.45;95.53;62357.09;5035312;28;20219;-80
2023/03/18 07:14:48;;;;;;;16.45;8.73;;;;;;;3.28;97.58;62334.06;5025930;28;20218;-77
2023/03/18 07:17:15;;;;;;;12.68;8.32;;;;;;;3.46;97.20;62353.09;5027525;28;20266;-78
2023/03/18 07:19:41;;;;;;;14.57;7.70;;;;;;;3.47;95.93;62351.09;5044464;28;20272;-78
2023/03/18 07:22:10;;;;;;;10.35;6.65;;;;;;;3.55;95.62;62361.84;5030572;28;20223;-79
2023/03/18 07:24:37;;;;;;;10.27;7.05;;;;;;;3.59;94.70;62370.97;5026994;28;20416;-78
2023/03/18 07:27:05;;;;;;;7.85;6.35;;;;;;;3.68;94.10;62377.19;5029221;28;20246;-77
2023/03/18 07:29:32;;;;;;;8.98;6.43;;;;;;;3.75;93.54;62381.88;5025157;28;20464;-79
2023/03/18 07:32:00;;;;;;;8.10;5.72;;;;;;;3.72;90.07;62376.28;5024397;28;20234;-80
2023/03/18 07:34:27;;;;;;;8.15;6.97;;;;;;;3.71;92.16;62375.75;5025189;28;20206;-80
2023/03/18 07:36:55;;;;;;;10.02;7.13;;;;;;;3.96;92.74;62406.00;5028082;28;20259;-80
2023/03/18 07:39:23;;;;;;;11.48;7.78;;;;;;;4.07;92.79;62415.31;5026566;28;20241;-79
2023/03/18 07:41:50;;;;;;;15.57;8.93;;;;;;;4.23;92.24;62428.75;5028319;28;20270;-78
2023/03/18 07:44:17;;;;;;;14.23;10.02;;;;;;;4.06;92.19;62411.78;5026554;28;20245;-80
2023/03/18 07:46:45;;;;;;;16.92;9.65;;;;;;;4.19;92.13;62427.16;5027459;28;20417;-80
2023/03/18 07:49:12;;;;;;;13.05;9.10;;;;;;;4.19;92.71;62427.66;5025587;28;20205;-78
2023/03/18 07:51:38;;;;;;;15.63;11.00;;;;;;;4.31;91.27;62440.03;5024658;28;20219;-80
2023/03/18 07:54:05;;;;;;;18.55;10.82;;;;;;;4.36;90.59;62444.66;5029567;28;20207;-80
2023/03/18 07:56:34;;;;;;;21.42;11.38;;;;;;;4.47;90.96;62464.03;5027518;28;20219;-79
2023/03/18 07:59:01;;;;;;;20.63;12.32;;;;;;;4.57;90.28;62466.75;5024012;28;20265;-79
2023/03/18 08:01:28;;;;;;;21.35;12.43;;;;;;;4.67;90.16;62479.06;5022112;28;20535;-79
2023/03/18 08:03:55;;;;;;;24.83;13.13;;;;;;;4.58;88.90;62467.28;5025161;28;20195;-81
2023/03/18 08:06:22;;;;;;;18.77;11.40;;;;;;;4.60;89.17;62474.38;5025770;28;20238;-79
2023/03/18 08:08:49;;;;;;;20.50;11.70;;;;;;;4.42;87.14;62453.84;5028338;28;20211;-80
2023/03/18 08:11:16;;;;;;;20.75;11.18;;;;;;;4.35;89.18;62444.13;5028065;28;20464;-80
2023/03/18 08:13:45;;;;;;;22.00;12.73;;;;;;;4.45;91.29;62456.94;5019548;28;20309;-78
2023/03/18 08:16:12;;;;;;;23.70;12.50;;;;;;;4.54;91.44;62465.69;5019633;28;20198;-78
2023/03/18 08:18:40;;;;;;;24.58;13.77;;;;;;;4.54;92.59;62465.69;5017151;28;20222;-79
2023/03/18 08:21:08;;;;;;;25.67;15.13;;;;;;;4.73;91.79;62482.72;5018325;28;20210;-78
2023/03/18 08:23:35;;;;;;;26.50;13.65;;;;;;;4.77;91.54;62491.38;5019987;28;20207;-78
2023/03/18 08:26:02;;;;;;;28.48;15.15;;;;;;;4.76;90.20;62485.81;5027894;28;20649;-77
2023/03/18 08:28:29;;;;;;;24.77;15.02;;;;;;;4.70;91.95;62479.63;5016389;28;20206;-77
2023/03/18 08:30:59;;;;;;;24.02;15.07;;;;;;;4.88;91.61;62495.13;5013002;28;20258;-78
2023/03/18 08:33:27;;;;;;;27.17;14.82;;;;;;;4.98;90.19;62510.47;5019989;28;20231;-79
2023/03/18 08:35:56;;;;;;;27.85;14.77;;;;;;;5.10;88.56;62523.34;5027565;28;20385;-79
2023/03/18 08:38:24;;;;;;;25.75;15.15;;;;;;;5.43;87.92;62561.88;5027228;28;20449;-78
2023/03/18 08:40:51;;;;;;;21.30;13.88;;;;;;;5.54;87.23;62568.16;5026968;28;20198;-79
2023/03/18 08:43:20;;;;;;;24.23;14.93;;;;;;;5.68;85.37;62583.09;5025562;28;20270;-80
2023/03/18 08:45:52;;;;;;;20.13;13.88;;;;;;;5.73;84.77;62587.72;5024078;28;20222;-79
2023/03/18 08:48:22;;;;;;;24.48;13.80;;;;;;;6.05;81.95;62620.72;5026680;28;20225;-79
2023/03/18 08:50:49;;;;;;;23.10;13.85;;;;;;;6.26;82.22;62642.38;5027423;28;20266;-78
2023/03/18 08:53:17;;;;;;;26.45;15.63;;;;;;;6.51;83.04;62667.63;5030603;28;20289;-78
2023/03/18 08:55:44;;;;;;;20.08;14.40;;;;;;;6.53;81.84;62667.69;5025144;28;20206;-79
2023/03/18 08:58:11;;;;;;;24.75;14.25;;;;;;;6.41;78.55;62657.31;5021652;28;20425;-78
2023/03/18 09:00:40;;;;;;;19.60;14.23;;;;;;;6.18;79.16;62633.63;5027984;28;20198;-79
2023/03/18 09:03:08;;;;;;;18.67;12.75;;;;;;;6.31;76.75;62642.47;5023469;28;20226;-78
2023/03/18 09:05:38;;;;;;;23.10;13.82;;;;;;;6.33;78.65;62652.13;5017336;28;20203;-77
2023/03/18 09:08:05;;;;;;;19.60;12.93;;;;;;;6.29;75.76;62648.00;5013018;28;20226;-76
2023/03/18 09:10:32;;;;;;;21.38;13.25;;;;;;;6.16;76.10;62629.03;5014843;28;20249;-76
2023/03/18 09:12:59;;;;;;;15.43;10.55;;;;;;;6.02;76.34;62615.09;5011396;28;21073;-77
2023/03/18 09:15:26;;;;;;;14.90;9.88;;;;;;;6.22;72.42;62638.25;5017701;28;20207;-77
2023/03/18 09:17:53;;;;;;;17.50;11.30;;;;;;;6.48;72.24;62662.53;5015388;28;20536;-77
2023/03/18 09:20:21;;;;;;;15.68;10.52;;;;;;;6.75;70.02;62695.41;5026549;28;20414;-77
2023/03/18 09:22:50;;;;;;;16.35;9.75;;;;;;;6.87;66.98;62702.75;5024788;28;20290;-78
2023/03/18 09:25:18;;;;;;;10.15;7.75;;;;;;;6.79;61.88;62691.97;5023456;28;20234;-76
2023/03/18 09:27:45;;;;;;;10.35;7.10;;;;;;;6.99;60.09;62715.13;5005745;28;20219;-77
2023/03/18 09:30:14;;;;;;;3.58;3.25;;;;;;;6.94;53.74;62712.50;5008241;28;20202;-76
2023/03/18 09:32:42;;;;;;;4.60;4.03;;;;;;;7.07;53.14;62725.91;5025907;28;20225;-79
2023/03/18 09:35:10;;;;;;;9.30;4.97;;;;;;;7.34;56.13;62757.78;5025503;28;20202;-78
2023/03/18 09:37:37;;;;;;;4.03;3.72;;;;;;;7.27;52.67;62743.50;5025995;28;20293;-76
2023/03/18 09:40:07;;;;;;;4.78;4.35;;;;;;;6.69;52.99;62684.19;5022939;28;20537;-76
2023/03/18 09:42:56;;;;;;;6.97;5.35;;;;;;;6.61;57.41;62680.47;5024493;28;20225;-77
2023/03/18 09:45:28;;;;;;;9.18;5.82;;;;;;;6.81;57.55;62701.09;5024012;28;20372;-77
2023/03/18 09:48:18;;;;;;;8.13;6.22;;;;;;;6.75;59.02;62687.84;5022037;28;20221;-77
2023/03/18 09:50:52;;;;;;;5.05;4.22;;;;;;;6.87;55.91;62702.22;5027889;28;20206;-77
2023/03/18 09:53:24;;;;;;;7.00;5.20;;;;;;;6.85;56.72;62703.19;5028255;28;20245;-77
2023/03/18 09:55:56;;;;;;;6.20;5.00;;;;;;;7.01;57.26;62721.72;5017586;28;21685;-78
2023/03/18 09:58:28;;;;;;;6.50;5.32;;;;;;;7.25;56.11;62738.38;5011837;28;20226;-78
2023/03/18 10:01:00;;;;;;;5.60;5.07;;;;;;;7.40;55.90;62758.94;5014715;28;20199;-78
2023/03/18 10:03:34;;;;;;;5.07;4.68;;;;;;;7.66;54.47;62783.22;5017162;28;20198;-76
2023/03/18 10:06:08;;;;;;;9.57;6.53;;;;;;;7.45;53.65;62764.09;5028060;28;20194;-79
2023/03/18 10:08:50;;;;;;;8.35;5.32;;;;;;;7.59;53.30;62776.50;5025698;28;20213;-79
2023/03/18 10:11:24;;;;;;;6.55;4.80;;;;;;;7.66;52.01;62788.28;5025962;28;20233;-78
2023/03/18 10:14:16;;;;;;;5.95;4.53;;;;;;;7.71;50.75;62788.91;5028594;28;20221;-78
2023/03/18 10:16:53;;;;;;;5.10;4.60;;;;;;;7.82;50.88;62799.72;5025836;28;20224;-77
2023/03/18 10:19:20;;;;;;;4.13;3.75;;;;;;;8.07;51.73;62828.63;5036146;28;20244;-78
2023/03/18 10:21:56;;;;;;;5.40;4.88;;;;;;;8.45;51.74;62872.44;5020265;28;20259;-77
2023/03/18 10:24:32;;;;;;;5.20;4.70;;;;;;;8.51;49.98;62875.59;5023145;28;20237;-76
2023/03/18 10:27:09;;;;;;;7.30;4.68;;;;;;;8.87;51.21;62912.78;5033725;28;20229;-77
2023/03/18 10:29:44;;;;;;;4.47;4.07;;;;;;;9.24;47.90;62948.47;5028741;28;20224;-78
2023/03/18 10:32:22;;;;;;;6.15;4.70;;;;;;;8.67;48.07;62887.03;5008889;28;20226;-77
2023/03/18 10:35:02;;;;;;;4.10;3.80;;;;;;;8.20;47.37;62847.09;5027119;28;20215;-77
2023/03/18 10:37:41;;;;;;;4.32;3.60;;;;;;;7.99;49.05;62819.81;5047774;28;20228;-76
2023/03/18 10:40:15;;;;;;;4.88;4.13;;;;;;;7.85;48.00;62805.88;5025034;28;20234;-78
2023/03/18 10:42:45;;;;;;;3.53;3.10;;;;;;;7.47;47.22;62763.63;5027318;28;20222;-78
2023/03/18 10:45:23;;;;;;;2.95;2.65;;;;;;;7.39;45.98;62758.41;5028867;28;20259;-76
2023/03/18 10:47:58;;;;;;;3.10;2.90;;;;;;;7.45;47.00;62766.63;5029554;28;20241;-75
2023/03/18 10:50:32;;;;;;;2.90;2.70;;;;;;;7.48;49.03;62767.19;5042472;28;20197;-76
2023/03/18 10:53:04;;;;;;;3.90;3.60;;;;;;;7.34;48.36;62748.19;5038395;28;20217;-76
2023/03/18 10:55:38;;;;;;;3.28;3.00;;;;;;;7.39;48.69;62755.34;5029893;28;20259;-77
2023/03/18 10:58:15;;;;;;;3.53;3.13;;;;;;;7.52;48.86;62771.84;5023691;28;20414;-76
2023/03/18 11:00:42;;;;;;;3.75;3.08;;;;;;;7.90;49.23;62810.53;5022953;28;20226;-77
2023/03/18 11:03:21;;;;;;;2.97;2.78;;;;;;;8.28;47.33;62854.34;5028487;28;20228;-77
2023/03/18 11:05:50;;;;;;;3.45;3.15;;;;;;;8.40;45.54;62864.22;5024399;28;20242;-76
2023/03/18 11:08:34;;;;;;;3.60;3.30;;;;;;;8.57;45.74;62879.75;5027371;28;20261;-76
2023/03/18 11:11:14;;;;;;;3.10;2.80;;;;;;;9.19;45.25;62938.75;5025233;28;20199;-77
2023/03/18 11:13:47;;;;;;;4.55;2.83;;;;;;;9.78;44.20;63003.78;5030347;28;20472;-78
2023/03/18 11:16:24;;;;;;;5.32;3.35;;;;;;;10.17;42.50;63044.66;5024793;28;20206;-77
2023/03/18 11:18:53;;;;;;;7.85;3.50;;;;;;;10.20;41.43;63045.22;5026493;28;20566;-78
2023/03/18 11:21:20;;;;;;;7.10;3.33;;;;;;;10.31;41.02;63058.63;5030908;28;20229;-77
2023/03/18 11:24:09;;;;;;;3.40;3.10;;;;;;;9.68;40.84;62988.88;5029029;28;20194;-75
2023/03/18 11:26:48;;;;;;;3.05;2.85;;;;;;;9.07;41.54;62933.44;5021104;28;20231;-77
2023/03/18 11:29:23;;;;;;;3.22;2.92;;;;;;;8.71;40.72;62896.25;5023722;28;20289;-77
2023/03/18 11:31:53;;;;;;;3.00;2.72;;;;;;;8.07;41.60;62828.09;5025099;28;20218;-77
2023/03/18 11:34:21;;;;;;;2.33;2.20;;;;;;;8.03;42.34;62824.47;5022235;28;20203;-78
2023/03/18 11:36:59;;;;;;;3.63;3.33;;;;;;;8.07;43.93;62828.09;5022771;28;20257;-77
2023/03/18 11:39:29;;;;;;;4.82;3.30;;;;;;;8.14;44.05;62835.31;5027754;28;20245;-77
2023/03/18 11:41:58;;;;;;;3.40;3.20;;;;;;;8.17;44.73;62836.41;5025586;28;20389;-78